sensor_id;sensor_type;location;lat;lon;timestamp;temperature;humidity
7494;DHT22;3788;49.902;8.590;2022-12-07T00:01:51;4.70;99.90
7494;DHT22;3788;49.902;8.590;2022-12-07T00:04:18;4.70;99.90
7494;DHT22;3788;49.902;8.590;2022-12-07T00:06:51;4.70;99.90
7494;DHT22;3788;49.902;8.590;2022-12-07T00:09:18;4.70;99.90
7494;DHT22;3788;49.902;8.590;2022-12-07T00:11:48;4.70;99.90
7494;DHT22;3788;49.902;8.590;2022-12-07T00:14:18;4.70;99.90
7494;DHT22;3788;49.902;8.590;2022-12-07T00:16:45;4.70;99.90
7494;DHT22;3788;49.902;8.590;2022-12-07T00:19:13;4.70;99.90
7494;DHT22;3788;49.902;8.590;2022-12-07T00:21:40;4.70;99.90
7494;DHT22;3788;49.902;8.590;2022-12-07T00:24:07;4.70;99.90
7494;DHT22;3788;49.902;8.590;2022-12-07T00:26:35;4.70;99.90
7494;DHT22;3788;49.902;8.590;2022-12-07T00:29:04;4.80;99.90
7494;DHT22;3788;49.902;8.590;2022-12-07T00:31:34;4.80;99.90
7494;DHT22;3788;49.902;8.590;2022-12-07T00:34:04;4.80;99.90
7494;DHT22;3788;49.902;8.590;2022-12-07T00:36:31;4.80;99.90
7494;DHT22;3788;49.902;8.590;2022-12-07T00:38:59;4.80;99.90
7494;DHT22;3788;49.902;8.590;2022-12-07T00:41:29;4.90;99.90
7494;DHT22;3788;49.902;8.590;2022-12-07T00:43:56;4.90;99.90
7494;DHT22;3788;49.902;8.590;2022-12-07T00:46:23;4.90;99.90
7494;DHT22;3788;49.902;8.590;2022-12-07T00:48:52;4.90;99.90
7494;DHT22;3788;49.902;8.590;2022-12-07T00:51:21;4.90;99.90
7494;DHT22;3788;49.902;8.590;2022-12-07T00:53:48;4.90;99.90
7494;DHT22;3788;49.902;8.590;2022-12-07T00:56:17;4.90;99.90
7494;DHT22;3788;49.902;8.590;2022-12-07T00:58:49;4.90;99.90
7494;DHT22;3788;49.902;8.590;2022-12-07T01:01:16;4.80;99.90
7494;DHT22;3788;49.902;8.590;2022-12-07T01:03:43;4.80;99.90
7494;DHT22;3788;49.902;8.590;2022-12-07T01:06:14;4.70;99.90
7494;DHT22;3788;49.902;8.590;2022-12-07T01:08:40;4.70;99.90
7494;DHT22;3788;49.902;8.590;2022-12-07T01:11:09;4.60;99.90
7494;DHT22;3788;49.902;8.590;2022-12-07T01:13:38;4.60;99.90
7494;DHT22;3788;49.902;8.590;2022-12-07T01:16:06;4.60;99.90
7494;DHT22;3788;49.902;8.590;2022-12-07T01:18:35;4.60;99.90
7494;DHT22;3788;49.902;8.590;2022-12-07T01:21:04;4.60;99.90
7494;DHT22;3788;49.902;8.590;2022-12-07T01:23:33;4.60;99.90
7494;DHT22;3788;49.902;8.590;2022-12-07T01:26:03;4.60;99.90
7494;DHT22;3788;49.902;8.590;2022-12-07T01:28:30;4.60;99.90
7494;DHT22;3788;49.902;8.590;2022-12-07T01:30:58;4.70;99.90
7494;DHT22;3788;49.902;8.590;2022-12-07T01:33:27;4.70;99.90
7494;DHT22;3788;49.902;8.590;2022-12-07T01:35:54;4.70;99.90
7494;DHT22;3788;49.902;8.590;2022-12-07T01:38:20;4.70;99.90
7494;DHT22;3788;49.902;8.590;2022-12-07T01:40:54;4.70;99.90
7494;DHT22;3788;49.902;8.590;2022-12-07T01:43:23;4.70;99.90
7494;DHT22;3788;49.902;8.590;2022-12-07T01:45:50;4.70;99.90
7494;DHT22;3788;49.902;8.590;2022-12-07T01:48:19;4.70;99.90
7494;DHT22;3788;49.902;8.590;2022-12-07T01:50:48;4.60;99.90
7494;DHT22;3788;49.902;8.590;2022-12-07T01:53:16;4.60;99.90
7494;DHT22;3788;49.902;8.590;2022-12-07T01:55:47;4.50;99.90
7494;DHT22;3788;49.902;8.590;2022-12-07T01:58:16;4.50;99.90
7494;DHT22;3788;49.902;8.590;2022-12-07T02:00:43;4.60;99.90
7494;DHT22;3788;49.902;8.590;2022-12-07T02:03:13;4.60;99.90
7494;DHT22;3788;49.902;8.590;2022-12-07T02:05:43;4.50;99.90
7494;DHT22;3788;49.902;8.590;2022-12-07T02:08:12;4.50;99.90
7494;DHT22;3788;49.902;8.590;2022-12-07T02:10:39;4.50;99.90
7494;DHT22;3788;49.902;8.590;2022-12-07T02:13:10;4.50;99.90
7494;DHT22;3788;49.902;8.590;2022-12-07T02:16:00;4.50;99.90
7494;DHT22;3788;49.902;8.590;2022-12-07T02:18:44;4.40;99.90
7494;DHT22;3788;49.902;8.590;2022-12-07T02:21:16;4.40;99.90
7494;DHT22;3788;49.902;8.590;2022-12-07T02:24:15;4.40;99.90
7494;DHT22;3788;49.902;8.590;2022-12-07T02:27:06;4.40;99.90
7494;DHT22;3788;49.902;8.590;2022-12-07T02:29:38;4.40;99.90
7494;DHT22;3788;49.902;8.590;2022-12-07T02:32:10;4.40;99.90
7494;DHT22;3788;49.902;8.590;2022-12-07T02:34:46;4.40;99.90
7494;DHT22;3788;49.902;8.590;2022-12-07T02:37:21;4.40;99.90
7494;DHT22;3788;49.902;8.590;2022-12-07T02:39:55;4.40;99.90
7494;DHT22;3788;49.902;8.590;2022-12-07T02:42:31;4.40;99.90
7494;DHT22;3788;49.902;8.590;2022-12-07T02:45:04;4.40;99.90
7494;DHT22;3788;49.902;8.590;2022-12-07T02:47:32;4.40;99.90
7494;DHT22;3788;49.902;8.590;2022-12-07T02:50:00;4.50;99.90
7494;DHT22;3788;49.902;8.590;2022-12-07T02:52:28;4.50;99.90
7494;DHT22;3788;49.902;8.590;2022-12-07T02:54:55;4.50;99.90
7494;DHT22;3788;49.902;8.590;2022-12-07T02:57:39;4.60;99.90
7494;DHT22;3788;49.902;8.590;2022-12-07T03:00:11;4.60;99.90
7494;DHT22;3788;49.902;8.590;2022-12-07T03:02:50;4.60;99.90
7494;DHT22;3788;49.902;8.590;2022-12-07T03:05:31;4.60;99.90
7494;DHT22;3788;49.902;8.590;2022-12-07T03:08:06;4.60;99.90
7494;DHT22;3788;49.902;8.590;2022-12-07T03:10:40;4.50;99.90
7494;DHT22;3788;49.902;8.590;2022-12-07T03:13:19;4.50;99.90
7494;DHT22;3788;49.902;8.590;2022-12-07T03:15:54;4.40;99.90
7494;DHT22;3788;49.902;8.590;2022-12-07T03:18:24;4.40;99.90
7494;DHT22;3788;49.902;8.590;2022-12-07T03:20:55;4.40;99.90
7494;DHT22;3788;49.902;8.590;2022-12-07T03:23:25;4.50;99.90
7494;DHT22;3788;49.902;8.590;2022-12-07T03:25:56;4.50;99.90
7494;DHT22;3788;49.902;8.590;2022-12-07T03:28:26;4.50;99.90
7494;DHT22;3788;49.902;8.590;2022-12-07T03:31:01;4.50;99.90
7494;DHT22;3788;49.902;8.590;2022-12-07T03:33:33;4.50;99.90
7494;DHT22;3788;49.902;8.590;2022-12-07T03:36:05;4.50;99.90
7494;DHT22;3788;49.902;8.590;2022-12-07T03:38:36;4.50;99.90
7494;DHT22;3788;49.902;8.590;2022-12-07T03:41:07;4.50;99.90
7494;DHT22;3788;49.902;8.590;2022-12-07T03:43:35;4.50;99.90
7494;DHT22;3788;49.902;8.590;2022-12-07T03:46:10;4.50;99.90
7494;DHT22;3788;49.902;8.590;2022-12-07T03:48:47;4.40;99.90
7494;DHT22;3788;49.902;8.590;2022-12-07T03:51:21;4.40;99.90
7494;DHT22;3788;49.902;8.590;2022-12-07T03:53:52;4.40;99.90
7494;DHT22;3788;49.902;8.590;2022-12-07T03:56:21;4.30;99.90
7494;DHT22;3788;49.902;8.590;2022-12-07T03:58:49;4.40;99.90
7494;DHT22;3788;49.902;8.590;2022-12-07T04:01:19;4.40;99.90
7494;DHT22;3788;49.902;8.590;2022-12-07T04:03:45;4.40;99.90
7494;DHT22;3788;49.902;8.590;2022-12-07T04:06:12;4.40;99.90
7494;DHT22;3788;49.902;8.590;2022-12-07T04:08:39;4.40;99.90
7494;DHT22;3788;49.902;8.590;2022-12-07T04:11:05;4.40;99.90
7494;DHT22;3788;49.902;8.590;2022-12-07T04:13:32;4.40;99.90
7494;DHT22;3788;49.902;8.590;2022-12-07T04:16:21;4.30;99.90
7494;DHT22;3788;49.902;8.590;2022-12-07T04:18:47;4.40;99.90
7494;DHT22;3788;49.902;8.590;2022-12-07T04:21:14;4.30;99.90
7494;DHT22;3788;49.902;8.590;2022-12-07T04:23:41;4.30;99.90
7494;DHT22;3788;49.902;8.590;2022-12-07T04:26:07;4.30;99.90
7494;DHT22;3788;49.902;8.590;2022-12-07T04:28:34;4.30;99.90
7494;DHT22;3788;49.902;8.590;2022-12-07T04:31:01;4.30;99.90
7494;DHT22;3788;49.902;8.590;2022-12-07T04:33:29;4.30;99.90
7494;DHT22;3788;49.902;8.590;2022-12-07T04:35:55;4.30;99.90
7494;DHT22;3788;49.902;8.590;2022-12-07T04:38:23;4.30;99.90
7494;DHT22;3788;49.902;8.590;2022-12-07T04:40:50;4.30;99.90
7494;DHT22;3788;49.902;8.590;2022-12-07T04:43:16;4.30;99.90
7494;DHT22;3788;49.902;8.590;2022-12-07T04:45:46;4.30;99.90
7494;DHT22;3788;49.902;8.590;2022-12-07T04:48:12;4.30;99.90
7494;DHT22;3788;49.902;8.590;2022-12-07T04:50:40;4.30;99.90
7494;DHT22;3788;49.902;8.590;2022-12-07T04:53:07;4.30;99.90
7494;DHT22;3788;49.902;8.590;2022-12-07T04:55:34;4.30;99.90
7494;DHT22;3788;49.902;8.590;2022-12-07T04:58:00;4.30;99.90
7494;DHT22;3788;49.902;8.590;2022-12-07T05:00:27;4.40;99.90
7494;DHT22;3788;49.902;8.590;2022-12-07T05:02:54;4.40;99.90
7494;DHT22;3788;49.902;8.590;2022-12-07T05:05:21;4.40;99.90
7494;DHT22;3788;49.902;8.590;2022-12-07T05:07:49;4.30;99.90
7494;DHT22;3788;49.902;8.590;2022-12-07T05:10:16;4.40;99.90
7494;DHT22;3788;49.902;8.590;2022-12-07T05:12:43;4.40;99.90
7494;DHT22;3788;49.902;8.590;2022-12-07T05:15:11;4.40;99.90
7494;DHT22;3788;49.902;8.590;2022-12-07T05:17:37;4.40;99.90
7494;DHT22;3788;49.902;8.590;2022-12-07T05:20:05;4.40;99.90
7494;DHT22;3788;49.902;8.590;2022-12-07T05:22:32;4.40;99.90
7494;DHT22;3788;49.902;8.590;2022-12-07T05:25:00;4.40;99.90
7494;DHT22;3788;49.902;8.590;2022-12-07T05:27:27;4.40;99.90
7494;DHT22;3788;49.902;8.590;2022-12-07T05:29:54;4.40;99.90
7494;DHT22;3788;49.902;8.590;2022-12-07T05:32:20;4.40;99.90
7494;DHT22;3788;49.902;8.590;2022-12-07T05:34:47;4.40;99.90
7494;DHT22;3788;49.902;8.590;2022-12-07T05:37:14;4.40;99.90
7494;DHT22;3788;49.902;8.590;2022-12-07T05:39:40;4.50;99.90
7494;DHT22;3788;49.902;8.590;2022-12-07T05:42:10;4.50;99.90
7494;DHT22;3788;49.902;8.590;2022-12-07T05:44:40;4.50;99.90
7494;DHT22;3788;49.902;8.590;2022-12-07T05:47:07;4.50;99.90
7494;DHT22;3788;49.902;8.590;2022-12-07T05:49:34;4.50;99.90
7494;DHT22;3788;49.902;8.590;2022-12-07T05:52:01;4.50;99.90
7494;DHT22;3788;49.902;8.590;2022-12-07T05:54:28;4.50;99.90
7494;DHT22;3788;49.902;8.590;2022-12-07T05:56:55;4.50;99.90
7494;DHT22;3788;49.902;8.590;2022-12-07T05:59:23;4.50;99.90
7494;DHT22;3788;49.902;8.590;2022-12-07T06:01:50;4.50;99.90
7494;DHT22;3788;49.902;8.590;2022-12-07T06:04:17;4.50;99.90
7494;DHT22;3788;49.902;8.590;2022-12-07T06:06:43;4.50;99.90
7494;DHT22;3788;49.902;8.590;2022-12-07T06:09:10;4.50;99.90
7494;DHT22;3788;49.902;8.590;2022-12-07T06:11:38;4.50;99.90
7494;DHT22;3788;49.902;8.590;2022-12-07T06:14:24;4.60;99.90
7494;DHT22;3788;49.902;8.590;2022-12-07T06:16:51;4.60;99.90
7494;DHT22;3788;49.902;8.590;2022-12-07T06:19:18;4.60;99.90
7494;DHT22;3788;49.902;8.590;2022-12-07T06:21:45;4.60;99.90
7494;DHT22;3788;49.902;8.590;2022-12-07T06:24:13;4.60;99.90
7494;DHT22;3788;49.902;8.590;2022-12-07T06:26:40;4.60;99.90
7494;DHT22;3788;49.902;8.590;2022-12-07T06:29:08;4.60;99.90
7494;DHT22;3788;49.902;8.590;2022-12-07T06:31:37;4.70;99.90
7494;DHT22;3788;49.902;8.590;2022-12-07T06:34:06;4.70;99.90
7494;DHT22;3788;49.902;8.590;2022-12-07T06:36:33;4.70;99.90
7494;DHT22;3788;49.902;8.590;2022-12-07T06:38:59;4.70;99.90
7494;DHT22;3788;49.902;8.590;2022-12-07T06:41:26;4.80;99.90
7494;DHT22;3788;49.902;8.590;2022-12-07T06:43:53;4.80;99.90
7494;DHT22;3788;49.902;8.590;2022-12-07T06:46:20;4.70;99.90
7494;DHT22;3788;49.902;8.590;2022-12-07T06:48:48;4.70;99.90
7494;DHT22;3788;49.902;8.590;2022-12-07T06:51:15;4.70;99.90
7494;DHT22;3788;49.902;8.590;2022-12-07T06:53:42;4.70;99.90
7494;DHT22;3788;49.902;8.590;2022-12-07T06:56:08;4.80;99.90
7494;DHT22;3788;49.902;8.590;2022-12-07T06:58:35;4.70;99.90
7494;DHT22;3788;49.902;8.590;2022-12-07T07:01:02;4.80;99.90
7494;DHT22;3788;49.902;8.590;2022-12-07T07:03:29;4.80;99.90
7494;DHT22;3788;49.902;8.590;2022-12-07T07:05:57;4.80;99.90
7494;DHT22;3788;49.902;8.590;2022-12-07T07:08:24;4.80;99.90
7494;DHT22;3788;49.902;8.590;2022-12-07T07:10:50;4.80;99.90
7494;DHT22;3788;49.902;8.590;2022-12-07T07:13:17;4.80;99.90
7494;DHT22;3788;49.902;8.590;2022-12-07T07:15:44;4.80;99.90
7494;DHT22;3788;49.902;8.590;2022-12-07T07:18:12;4.80;99.90
7494;DHT22;3788;49.902;8.590;2022-12-07T07:20:38;4.80;99.90
7494;DHT22;3788;49.902;8.590;2022-12-07T07:23:07;4.80;99.90
7494;DHT22;3788;49.902;8.590;2022-12-07T07:25:34;4.80;99.90
7494;DHT22;3788;49.902;8.590;2022-12-07T07:28:02;4.80;99.90
7494;DHT22;3788;49.902;8.590;2022-12-07T07:30:29;4.80;99.90
7494;DHT22;3788;49.902;8.590;2022-12-07T07:32:57;4.80;99.90
7494;DHT22;3788;49.902;8.590;2022-12-07T07:35:24;4.80;99.90
7494;DHT22;3788;49.902;8.590;2022-12-07T07:37:51;4.80;99.90
7494;DHT22;3788;49.902;8.590;2022-12-07T07:40:19;4.90;99.90
7494;DHT22;3788;49.902;8.590;2022-12-07T07:42:47;4.90;99.90
7494;DHT22;3788;49.902;8.590;2022-12-07T07:45:14;4.90;99.90
7494;DHT22;3788;49.902;8.590;2022-12-07T07:47:41;4.90;99.90
7494;DHT22;3788;49.902;8.590;2022-12-07T07:50:08;4.90;99.90
7494;DHT22;3788;49.902;8.590;2022-12-07T07:52:35;4.90;99.90
7494;DHT22;3788;49.902;8.590;2022-12-07T07:55:04;4.90;99.90
7494;DHT22;3788;49.902;8.590;2022-12-07T07:57:32;4.90;99.90
7494;DHT22;3788;49.902;8.590;2022-12-07T07:59:59;4.90;99.90
7494;DHT22;3788;49.902;8.590;2022-12-07T08:02:26;4.90;99.90
7494;DHT22;3788;49.902;8.590;2022-12-07T08:04:55;4.90;99.90
7494;DHT22;3788;49.902;8.590;2022-12-07T08:07:22;4.90;99.90
7494;DHT22;3788;49.902;8.590;2022-12-07T08:09:48;5.00;99.90
7494;DHT22;3788;49.902;8.590;2022-12-07T08:12:15;5.00;99.90
7494;DHT22;3788;49.902;8.590;2022-12-07T08:14:43;5.00;99.90
7494;DHT22;3788;49.902;8.590;2022-12-07T08:17:10;5.00;99.90
7494;DHT22;3788;49.902;8.590;2022-12-07T08:19:37;5.00;99.90
7494;DHT22;3788;49.902;8.590;2022-12-07T08:22:04;5.00;99.90
7494;DHT22;3788;49.902;8.590;2022-12-07T08:24:33;5.10;99.90
7494;DHT22;3788;49.902;8.590;2022-12-07T08:27:00;5.10;99.90
7494;DHT22;3788;49.902;8.590;2022-12-07T08:29:27;5.20;99.90
7494;DHT22;3788;49.902;8.590;2022-12-07T08:31:55;5.30;99.90
7494;DHT22;3788;49.902;8.590;2022-12-07T08:34:22;5.30;99.90
7494;DHT22;3788;49.902;8.590;2022-12-07T08:36:48;5.30;99.90
7494;DHT22;3788;49.902;8.590;2022-12-07T08:39:15;5.40;99.90
7494;DHT22;3788;49.902;8.590;2022-12-07T08:41:42;5.40;99.90
7494;DHT22;3788;49.902;8.590;2022-12-07T08:44:09;5.40;99.90
7494;DHT22;3788;49.902;8.590;2022-12-07T08:46:38;5.40;99.90
7494;DHT22;3788;49.902;8.590;2022-12-07T08:49:11;5.40;99.90
7494;DHT22;3788;49.902;8.590;2022-12-07T08:51:39;5.40;99.90
7494;DHT22;3788;49.902;8.590;2022-12-07T08:54:09;5.30;99.90
7494;DHT22;3788;49.902;8.590;2022-12-07T08:56:36;5.30;99.90
7494;DHT22;3788;49.902;8.590;2022-12-07T08:59:05;5.30;99.90
7494;DHT22;3788;49.902;8.590;2022-12-07T09:01:32;5.40;99.90
7494;DHT22;3788;49.902;8.590;2022-12-07T09:03:59;5.40;99.90
7494;DHT22;3788;49.902;8.590;2022-12-07T09:06:28;5.50;99.90
7494;DHT22;3788;49.902;8.590;2022-12-07T09:08:58;5.50;99.90
7494;DHT22;3788;49.902;8.590;2022-12-07T09:11:25;5.50;99.90
7494;DHT22;3788;49.902;8.590;2022-12-07T09:13:52;5.60;99.90
7494;DHT22;3788;49.902;8.590;2022-12-07T09:16:19;5.70;99.90
7494;DHT22;3788;49.902;8.590;2022-12-07T09:18:46;5.80;99.90
7494;DHT22;3788;49.902;8.590;2022-12-07T09:21:12;5.90;99.90
7494;DHT22;3788;49.902;8.590;2022-12-07T09:23:42;5.90;99.90
7494;DHT22;3788;49.902;8.590;2022-12-07T09:26:09;6.00;99.90
7494;DHT22;3788;49.902;8.590;2022-12-07T09:28:36;6.20;99.90
7494;DHT22;3788;49.902;8.590;2022-12-07T09:31:03;6.30;99.90
7494;DHT22;3788;49.902;8.590;2022-12-07T09:33:29;6.40;99.90
7494;DHT22;3788;49.902;8.590;2022-12-07T09:35:56;6.40;99.90
7494;DHT22;3788;49.902;8.590;2022-12-07T09:38:23;6.50;99.90
7494;DHT22;3788;49.902;8.590;2022-12-07T09:40:54;6.50;99.90
7494;DHT22;3788;49.902;8.590;2022-12-07T09:43:22;6.50;99.90
7494;DHT22;3788;49.902;8.590;2022-12-07T09:45:52;6.50;99.90
7494;DHT22;3788;49.902;8.590;2022-12-07T09:48:21;6.40;99.90
7494;DHT22;3788;49.902;8.590;2022-12-07T09:50:50;6.40;99.90
7494;DHT22;3788;49.902;8.590;2022-12-07T09:53:22;6.40;99.90
7494;DHT22;3788;49.902;8.590;2022-12-07T09:55:52;6.30;99.90
7494;DHT22;3788;49.902;8.590;2022-12-07T09:58:22;6.30;99.90
7494;DHT22;3788;49.902;8.590;2022-12-07T10:00:50;6.30;99.90
7494;DHT22;3788;49.902;8.590;2022-12-07T10:03:19;6.30;99.90
7494;DHT22;3788;49.902;8.590;2022-12-07T10:05:49;6.40;99.90
7494;DHT22;3788;49.902;8.590;2022-12-07T10:08:17;6.50;99.90
7494;DHT22;3788;49.902;8.590;2022-12-07T10:10:44;6.60;99.90
7494;DHT22;3788;49.902;8.590;2022-12-07T10:13:15;6.60;99.90
7494;DHT22;3788;49.902;8.590;2022-12-07T10:15:45;6.70;99.90
7494;DHT22;3788;49.902;8.590;2022-12-07T10:18:28;6.70;99.90
7494;DHT22;3788;49.902;8.590;2022-12-07T10:21:23;6.80;99.90
7494;DHT22;3788;49.902;8.590;2022-12-07T10:24:00;6.70;99.90
7494;DHT22;3788;49.902;8.590;2022-12-07T10:26:30;6.70;99.90
7494;DHT22;3788;49.902;8.590;2022-12-07T10:29:01;6.70;99.90
7494;DHT22;3788;49.902;8.590;2022-12-07T10:31:28;6.70;99.90
7494;DHT22;3788;49.902;8.590;2022-12-07T10:33:57;6.80;99.90
7494;DHT22;3788;49.902;8.590;2022-12-07T10:36:26;6.90;99.90
7494;DHT22;3788;49.902;8.590;2022-12-07T10:38:59;6.90;99.90
7494;DHT22;3788;49.902;8.590;2022-12-07T10:41:26;7.00;99.90
7494;DHT22;3788;49.902;8.590;2022-12-07T10:43:54;7.20;99.90
7494;DHT22;3788;49.902;8.590;2022-12-07T10:49:49;7.30;99.90
7494;DHT22;3788;49.902;8.590;2022-12-07T10:52:31;7.30;99.90
7494;DHT22;3788;49.902;8.590;2022-12-07T10:55:12;7.30;99.90
7494;DHT22;3788;49.902;8.590;2022-12-07T10:57:51;7.30;99.90
7494;DHT22;3788;49.902;8.590;2022-12-07T11:00:22;7.30;99.90
7494;DHT22;3788;49.902;8.590;2022-12-07T11:03:23;7.40;99.90
7494;DHT22;3788;49.902;8.590;2022-12-07T11:05:58;7.30;99.90
7494;DHT22;3788;49.902;8.590;2022-12-07T11:08:39;7.40;99.90
7494;DHT22;3788;49.902;8.590;2022-12-07T11:11:14;7.40;99.90
7494;DHT22;3788;49.902;8.590;2022-12-07T11:13:48;7.40;99.90
7494;DHT22;3788;49.902;8.590;2022-12-07T11:16:27;7.30;99.90
7494;DHT22;3788;49.902;8.590;2022-12-07T11:19:06;7.30;99.90
7494;DHT22;3788;49.902;8.590;2022-12-07T11:21:45;7.20;99.90
7494;DHT22;3788;49.902;8.590;2022-12-07T11:24:16;7.20;99.90
7494;DHT22;3788;49.902;8.590;2022-12-07T11:27:00;7.20;99.90
7494;DHT22;3788;49.902;8.590;2022-12-07T11:32:42;7.20;99.90
7494;DHT22;3788;49.902;8.590;2022-12-07T11:35:20;7.30;99.90
7494;DHT22;3788;49.902;8.590;2022-12-07T11:37:49;7.40;99.90
7494;DHT22;3788;49.902;8.590;2022-12-07T11:40:21;7.50;99.90
7494;DHT22;3788;49.902;8.590;2022-12-07T11:42:58;7.70;99.90
7494;DHT22;3788;49.902;8.590;2022-12-07T11:45:27;7.90;99.90
7494;DHT22;3788;49.902;8.590;2022-12-07T11:47:59;7.90;99.60
7494;DHT22;3788;49.902;8.590;2022-12-07T11:50:33;7.90;98.90
7494;DHT22;3788;49.902;8.590;2022-12-07T11:53:05;7.90;98.80
7494;DHT22;3788;49.902;8.590;2022-12-07T11:55:42;7.90;98.70
7494;DHT22;3788;49.902;8.590;2022-12-07T11:58:21;7.80;98.20
7494;DHT22;3788;49.902;8.590;2022-12-07T12:00:51;7.80;98.30
7494;DHT22;3788;49.902;8.590;2022-12-07T12:03:25;7.70;98.50
7494;DHT22;3788;49.902;8.590;2022-12-07T12:05:57;7.60;98.60
7494;DHT22;3788;49.902;8.590;2022-12-07T12:08:28;7.60;98.80
7494;DHT22;3788;49.902;8.590;2022-12-07T12:11:01;7.60;99.10
7494;DHT22;3788;49.902;8.590;2022-12-07T12:13:51;7.60;99.10
7494;DHT22;3788;49.902;8.590;2022-12-07T12:16:55;7.70;98.90
7494;DHT22;3788;49.902;8.590;2022-12-07T12:19:32;7.70;98.50
7494;DHT22;3788;49.902;8.590;2022-12-07T12:22:06;7.70;98.40
7494;DHT22;3788;49.902;8.590;2022-12-07T12:24:38;7.70;98.30
7494;DHT22;3788;49.902;8.590;2022-12-07T12:27:08;7.70;98.20
7494;DHT22;3788;49.902;8.590;2022-12-07T12:29:38;7.80;98.10
7494;DHT22;3788;49.902;8.590;2022-12-07T12:32:11;7.70;98.00
7494;DHT22;3788;49.902;8.590;2022-12-07T12:34:42;7.70;97.80
7494;DHT22;3788;49.902;8.590;2022-12-07T12:37:42;7.70;97.80
7494;DHT22;3788;49.902;8.590;2022-12-07T12:40:37;7.70;97.60
7494;DHT22;3788;49.902;8.590;2022-12-07T12:43:47;7.60;97.40
7494;DHT22;3788;49.902;8.590;2022-12-07T12:46:48;7.60;97.80
7494;DHT22;3788;49.902;8.590;2022-12-07T12:49:37;7.60;97.50
7494;DHT22;3788;49.902;8.590;2022-12-07T12:58:41;7.50;97.60
7494;DHT22;3788;49.902;8.590;2022-12-07T13:01:36;7.60;97.90
7494;DHT22;3788;49.902;8.590;2022-12-07T13:04:18;7.60;98.00
7494;DHT22;3788;49.902;8.590;2022-12-07T13:06:47;7.70;98.10
7494;DHT22;3788;49.902;8.590;2022-12-07T13:09:20;7.70;98.30
7494;DHT22;3788;49.902;8.590;2022-12-07T13:11:48;7.70;98.00
7494;DHT22;3788;49.902;8.590;2022-12-07T13:14:40;7.70;98.10
7494;DHT22;3788;49.902;8.590;2022-12-07T13:17:10;7.60;98.40
7494;DHT22;3788;49.902;8.590;2022-12-07T13:19:58;7.60;98.80
7494;DHT22;3788;49.902;8.590;2022-12-07T13:22:49;7.50;99.20
7494;DHT22;3788;49.902;8.590;2022-12-07T13:25:28;7.50;99.50
7494;DHT22;3788;49.902;8.590;2022-12-07T13:28:00;7.50;99.50
7494;DHT22;3788;49.902;8.590;2022-12-07T13:30:29;7.50;99.50
7494;DHT22;3788;49.902;8.590;2022-12-07T13:32:59;7.50;99.70
7494;DHT22;3788;49.902;8.590;2022-12-07T13:35:31;7.60;99.70
7494;DHT22;3788;49.902;8.590;2022-12-07T13:38:02;7.70;99.60
7494;DHT22;3788;49.902;8.590;2022-12-07T13:40:31;7.80;99.40
7494;DHT22;3788;49.902;8.590;2022-12-07T13:42:59;7.90;99.30
7494;DHT22;3788;49.902;8.590;2022-12-07T13:45:28;8.00;98.80
7494;DHT22;3788;49.902;8.590;2022-12-07T13:48:21;8.10;98.30
7494;DHT22;3788;49.902;8.590;2022-12-07T13:50:54;8.10;97.00
7494;DHT22;3788;49.902;8.590;2022-12-07T13:53:21;8.10;96.40
7494;DHT22;3788;49.902;8.590;2022-12-07T13:55:48;8.20;95.90
7494;DHT22;3788;49.902;8.590;2022-12-07T13:58:15;8.20;94.90
7494;DHT22;3788;49.902;8.590;2022-12-07T14:00:42;8.10;94.70
7494;DHT22;3788;49.902;8.590;2022-12-07T14:03:30;8.00;95.10
7494;DHT22;3788;49.902;8.590;2022-12-07T14:06:07;8.00;95.40
7494;DHT22;3788;49.902;8.590;2022-12-07T14:08:38;7.90;95.20
7494;DHT22;3788;49.902;8.590;2022-12-07T14:11:05;7.90;94.80
7494;DHT22;3788;49.902;8.590;2022-12-07T14:13:35;7.80;94.50
7494;DHT22;3788;49.902;8.590;2022-12-07T14:16:19;7.80;94.40
7494;DHT22;3788;49.902;8.590;2022-12-07T14:18:50;7.70;94.70
7494;DHT22;3788;49.902;8.590;2022-12-07T14:21:19;7.70;94.90
7494;DHT22;3788;49.902;8.590;2022-12-07T14:24:07;7.70;95.00
7494;DHT22;3788;49.902;8.590;2022-12-07T14:26:35;7.70;95.20
7494;DHT22;3788;49.902;8.590;2022-12-07T14:29:21;7.70;95.30
7494;DHT22;3788;49.902;8.590;2022-12-07T14:31:48;7.60;95.60
7494;DHT22;3788;49.902;8.590;2022-12-07T14:34:16;7.60;95.60
7494;DHT22;3788;49.902;8.590;2022-12-07T14:36:43;7.60;95.70
7494;DHT22;3788;49.902;8.590;2022-12-07T14:39:09;7.50;95.70
7494;DHT22;3788;49.902;8.590;2022-12-07T14:41:36;7.50;96.00
7494;DHT22;3788;49.902;8.590;2022-12-07T14:44:19;7.50;96.40
7494;DHT22;3788;49.902;8.590;2022-12-07T14:46:47;7.50;96.60
7494;DHT22;3788;49.902;8.590;2022-12-07T14:49:16;7.40;96.80
7494;DHT22;3788;49.902;8.590;2022-12-07T14:51:45;7.40;96.70
7494;DHT22;3788;49.902;8.590;2022-12-07T14:54:15;7.40;96.50
7494;DHT22;3788;49.902;8.590;2022-12-07T14:56:43;7.40;96.50
7494;DHT22;3788;49.902;8.590;2022-12-07T14:59:11;7.40;96.70
7494;DHT22;3788;49.902;8.590;2022-12-07T15:01:38;7.30;96.90
7494;DHT22;3788;49.902;8.590;2022-12-07T15:04:05;7.30;96.90
7494;DHT22;3788;49.902;8.590;2022-12-07T15:06:33;7.30;97.10
7494;DHT22;3788;49.902;8.590;2022-12-07T15:09:00;7.20;97.20
7494;DHT22;3788;49.902;8.590;2022-12-07T15:11:27;7.20;97.20
7494;DHT22;3788;49.902;8.590;2022-12-07T15:13:54;7.20;97.10
7494;DHT22;3788;49.902;8.590;2022-12-07T15:16:38;7.20;97.20
7494;DHT22;3788;49.902;8.590;2022-12-07T15:19:08;7.10;97.50
7494;DHT22;3788;49.902;8.590;2022-12-07T15:21:38;7.10;97.80
7494;DHT22;3788;49.902;8.590;2022-12-07T15:24:06;7.10;98.10
7494;DHT22;3788;49.902;8.590;2022-12-07T15:26:33;7.00;98.70
7494;DHT22;3788;49.902;8.590;2022-12-07T15:28:59;6.90;99.20
7494;DHT22;3788;49.902;8.590;2022-12-07T15:31:27;6.80;99.60
7494;DHT22;3788;49.902;8.590;2022-12-07T15:33:54;6.70;99.90
7494;DHT22;3788;49.902;8.590;2022-12-07T15:36:22;6.70;99.90
7494;DHT22;3788;49.902;8.590;2022-12-07T15:38:51;6.70;99.90
7494;DHT22;3788;49.902;8.590;2022-12-07T15:41:18;6.60;99.90
7494;DHT22;3788;49.902;8.590;2022-12-07T15:43:45;6.60;99.90
7494;DHT22;3788;49.902;8.590;2022-12-07T15:46:30;6.60;99.90
7494;DHT22;3788;49.902;8.590;2022-12-07T15:48:57;6.50;99.90
7494;DHT22;3788;49.902;8.590;2022-12-07T15:51:24;6.50;99.90
7494;DHT22;3788;49.902;8.590;2022-12-07T15:53:52;6.50;99.90
7494;DHT22;3788;49.902;8.590;2022-12-07T15:56:18;6.50;99.90
7494;DHT22;3788;49.902;8.590;2022-12-07T15:58:46;6.50;99.90
7494;DHT22;3788;49.902;8.590;2022-12-07T16:01:13;6.50;99.90
7494;DHT22;3788;49.902;8.590;2022-12-07T16:03:41;6.50;99.90
7494;DHT22;3788;49.902;8.590;2022-12-07T16:06:08;6.50;99.90
7494;DHT22;3788;49.902;8.590;2022-12-07T16:08:35;6.60;99.90
7494;DHT22;3788;49.902;8.590;2022-12-07T16:11:06;6.60;99.90
7494;DHT22;3788;49.902;8.590;2022-12-07T16:13:33;6.60;99.90
7494;DHT22;3788;49.902;8.590;2022-12-07T16:16:03;6.60;99.90
7494;DHT22;3788;49.902;8.590;2022-12-07T16:18:30;6.50;99.90
7494;DHT22;3788;49.902;8.590;2022-12-07T16:20:57;6.50;99.90
7494;DHT22;3788;49.902;8.590;2022-12-07T16:23:24;6.40;99.90
7494;DHT22;3788;49.902;8.590;2022-12-07T16:25:50;6.30;99.90
7494;DHT22;3788;49.902;8.590;2022-12-07T16:28:18;6.30;99.90
7494;DHT22;3788;49.902;8.590;2022-12-07T16:30:45;6.20;99.90
7494;DHT22;3788;49.902;8.590;2022-12-07T16:33:12;6.20;99.90
7494;DHT22;3788;49.902;8.590;2022-12-07T16:35:39;6.20;99.90
7494;DHT22;3788;49.902;8.590;2022-12-07T16:38:07;6.20;99.90
7494;DHT22;3788;49.902;8.590;2022-12-07T16:40:34;6.20;99.90
7494;DHT22;3788;49.902;8.590;2022-12-07T16:43:01;6.20;99.90
7494;DHT22;3788;49.902;8.590;2022-12-07T16:45:30;6.20;99.90
7494;DHT22;3788;49.902;8.590;2022-12-07T16:47:56;6.20;99.90
7494;DHT22;3788;49.902;8.590;2022-12-07T16:50:23;6.20;99.90
7494;DHT22;3788;49.902;8.590;2022-12-07T16:52:50;6.20;99.90